createdAt,value
2018-12-21T00:02:02.809Z,40.70
2018-12-21T00:04:31.080Z,38.30
2018-12-21T00:06:59.311Z,42.30
2018-12-21T00:09:27.527Z,40.17
2018-12-21T00:11:55.735Z,45.97
2018-12-21T00:14:23.911Z,35.73
2018-12-21T00:16:52.049Z,44.03
2018-12-21T00:19:20.222Z,47.03
2018-12-21T00:21:48.397Z,44.53
2018-12-21T00:24:16.689Z,44.40
2018-12-21T00:26:44.854Z,44.30
2018-12-21T00:29:13.010Z,45.30
2018-12-21T00:31:46.647Z,46.50
2018-12-21T00:34:20.315Z,47.47
2018-12-21T00:36:53.921Z,44.63
2018-12-21T00:39:27.740Z,41.50
2018-12-21T00:41:55.196Z,39.07
2018-12-21T00:44:31.066Z,40.77
2018-12-21T00:47:01.472Z,41.63
2018-12-21T00:49:29.764Z,43.27
2018-12-21T00:51:57.916Z,40.33
2018-12-21T00:54:26.104Z,39.83
2018-12-21T00:56:54.285Z,42.37
2018-12-21T00:59:22.536Z,45.97
2018-12-21T01:01:50.879Z,43.70
2018-12-21T01:04:19.184Z,38.77
2018-12-21T01:06:47.497Z,40.60
2018-12-21T01:09:15.656Z,42.90
2018-12-21T01:11:43.846Z,42.23
2018-12-21T01:14:12.214Z,41.70
2018-12-21T01:16:40.491Z,39.53
2018-12-21T01:19:08.739Z,33.50
2018-12-21T01:21:38.923Z,33.50
2018-12-21T01:24:07.156Z,41.43
2018-12-21T01:26:35.388Z,38.83
2018-12-21T01:29:03.604Z,42.23
2018-12-21T01:31:31.788Z,40.40
2018-12-21T01:33:59.998Z,40.43
2018-12-21T01:36:28.321Z,42.50
2018-12-21T01:38:56.600Z,42.23
2018-12-21T01:41:24.858Z,38.77
2018-12-21T01:43:53.039Z,36.53
2018-12-21T01:46:21.221Z,38.57
2018-12-21T01:48:49.489Z,39.90
2018-12-21T01:51:17.612Z,36.57
2018-12-21T01:53:45.826Z,38.87
2018-12-21T01:56:13.992Z,37.13
2018-12-21T01:58:42.309Z,37.00
2018-12-21T02:01:10.395Z,37.67
2018-12-21T02:03:38.540Z,32.93
2018-12-21T02:06:06.829Z,30.57
2018-12-21T02:08:35.050Z,38.33
2018-12-21T02:11:03.306Z,36.47
2018-12-21T02:13:31.557Z,38.30
2018-12-21T02:15:59.744Z,32.13
2018-12-21T02:18:27.896Z,41.90
2018-12-21T02:20:56.040Z,43.27
2018-12-21T02:23:24.271Z,40.00
2018-12-21T02:25:52.400Z,38.47
2018-12-21T02:28:20.527Z,39.77
2018-12-21T02:30:48.689Z,41.87
2018-12-21T02:33:16.841Z,42.73
2018-12-21T02:35:45.040Z,33.70
2018-12-21T02:38:13.351Z,36.47
2018-12-21T02:40:41.611Z,41.03
2018-12-21T02:43:09.900Z,40.97
2018-12-21T02:45:37.995Z,40.87
2018-12-21T02:48:06.212Z,39.93
2018-12-21T02:50:34.426Z,34.83
2018-12-21T02:53:02.767Z,40.50
2018-12-21T02:55:30.962Z,38.13
2018-12-21T02:57:59.316Z,38.67
2018-12-21T03:00:27.567Z,36.80
2018-12-21T03:02:55.683Z,42.70
2018-12-21T03:05:23.856Z,36.70
2018-12-21T03:07:52.001Z,39.57
2018-12-21T03:10:20.185Z,32.50
2018-12-21T03:12:48.408Z,39.63
2018-12-21T03:15:16.589Z,43.97
2018-12-21T03:17:44.900Z,38.97
2018-12-21T03:20:13.099Z,42.63
2018-12-21T03:22:41.337Z,46.20
2018-12-21T03:25:09.519Z,38.23
2018-12-21T03:27:37.712Z,38.33
2018-12-21T03:30:06.859Z,40.53
2018-12-21T03:32:35.415Z,39.17
2018-12-21T03:35:03.998Z,36.03
2018-12-21T03:37:32.111Z,34.90
2018-12-21T03:40:00.296Z,36.57
2018-12-21T03:42:28.572Z,36.77
2018-12-21T03:44:56.735Z,36.07
2018-12-21T03:47:25.017Z,28.07
2018-12-21T03:49:53.215Z,36.90
2018-12-21T03:52:24.510Z,34.23
2018-12-21T03:54:51.716Z,40.07
2018-12-21T03:57:20.590Z,39.83
2018-12-21T03:59:48.872Z,39.20
2018-12-21T04:02:17.138Z,37.37
2018-12-21T04:04:45.410Z,38.00
2018-12-21T04:07:13.647Z,34.87
2018-12-21T04:09:42.301Z,38.07
2018-12-21T04:12:11.383Z,33.43
2018-12-21T04:14:39.911Z,40.00
2018-12-21T04:17:08.127Z,40.17
2018-12-21T04:19:36.771Z,40.07
2018-12-21T04:22:05.359Z,42.47
2018-12-21T04:24:33.760Z,36.63
2018-12-21T04:27:02.146Z,33.87
2018-12-21T04:29:30.783Z,34.30
2018-12-21T04:31:59.731Z,35.97
2018-12-21T04:34:27.965Z,35.07
2018-12-21T04:36:56.627Z,36.23
2018-12-21T04:39:25.753Z,36.53
2018-12-21T04:41:54.685Z,32.83
2018-12-21T04:44:23.455Z,28.23
2018-12-21T04:46:52.069Z,29.63
2018-12-21T04:49:20.710Z,26.67
2018-12-21T04:51:48.928Z,34.50
2018-12-21T04:54:17.276Z,35.03
2018-12-21T04:56:45.666Z,37.23
2018-12-21T04:59:13.901Z,40.33
2018-12-21T05:01:42.192Z,40.90
2018-12-21T05:04:19.515Z,36.70
2018-12-21T05:06:40.622Z,31.47
2018-12-21T05:09:08.808Z,36.63
2018-12-21T05:11:37.134Z,41.73
2018-12-21T05:14:12.095Z,42.10
2018-12-21T05:16:40.716Z,38.53
2018-12-21T05:19:09.653Z,45.17
2018-12-21T05:21:38.196Z,36.73
2018-12-21T05:24:06.840Z,44.33
2018-12-21T05:26:35.092Z,42.37
2018-12-21T05:29:03.308Z,37.87
2018-12-21T05:31:31.543Z,37.37
2018-12-21T05:34:00.012Z,40.37
2018-12-21T05:36:28.405Z,39.13
2018-12-21T05:38:56.705Z,38.03
2018-12-21T05:41:25.302Z,41.30
2018-12-21T05:46:36.858Z,34.30
2018-12-21T05:49:05.496Z,35.43
2018-12-21T05:51:44.074Z,36.23
2018-12-21T05:54:12.775Z,32.33
2018-12-21T05:56:41.379Z,38.53
2018-12-21T05:59:09.805Z,40.47
2018-12-21T06:01:38.319Z,37.33
2018-12-21T06:04:06.916Z,35.80
2018-12-21T06:06:35.116Z,33.90
2018-12-21T06:09:04.622Z,37.37
2018-12-21T06:11:32.781Z,42.33
2018-12-21T06:14:01.176Z,33.53
2018-12-21T06:16:29.668Z,37.27
2018-12-21T06:18:57.760Z,39.37
2018-12-21T06:21:26.032Z,39.10
2018-12-21T06:23:54.273Z,34.93
2018-12-21T06:26:22.566Z,39.57
2018-12-21T06:28:50.836Z,44.00
2018-12-21T06:31:18.997Z,45.13
2018-12-21T06:33:52.720Z,48.87
2018-12-21T06:36:27.549Z,42.33
2018-12-21T06:38:55.877Z,40.17
2018-12-21T06:41:24.064Z,47.63
2018-12-21T06:43:52.299Z,49.13
2018-12-21T06:46:20.575Z,43.63
2018-12-21T06:48:48.867Z,44.33
2018-12-21T06:51:17.204Z,47.17
2018-12-21T06:53:45.342Z,44.00
2018-12-21T06:56:13.564Z,37.00
2018-12-21T06:58:41.750Z,35.03
2018-12-21T07:01:09.911Z,38.47
2018-12-21T07:03:38.030Z,41.83
2018-12-21T07:06:09.434Z,45.37
2018-12-21T07:08:37.616Z,46.57
2018-12-21T07:11:06.122Z,47.67
2018-12-21T07:13:34.325Z,42.00
2018-12-21T07:16:02.456Z,41.23
2018-12-21T07:18:30.616Z,56.87
2018-12-21T07:21:03.526Z,39.27
2018-12-21T07:23:33.725Z,44.30
2018-12-21T07:26:01.948Z,43.30
2018-12-21T07:28:30.168Z,43.70
2018-12-21T07:30:59.056Z,44.80
2018-12-21T07:33:29.724Z,43.37
2018-12-21T07:36:08.119Z,43.13
2018-12-21T07:38:30.724Z,44.30
2018-12-21T07:40:59.115Z,46.63
2018-12-21T07:43:29.699Z,50.70
2018-12-21T07:45:57.844Z,47.83
2018-12-21T07:48:29.311Z,44.77
2018-12-21T07:51:01.428Z,45.73
2018-12-21T08:09:32.435Z,50.77
2018-12-21T08:12:01.181Z,50.93
2018-12-21T08:14:30.502Z,46.43
2018-12-21T08:17:01.141Z,54.60
2018-12-21T08:19:32.169Z,42.90
2018-12-21T08:22:01.655Z,57.17
2018-12-21T08:24:31.072Z,54.83
2018-12-21T08:27:00.810Z,48.37
2018-12-21T08:29:30.394Z,50.27
2018-12-21T08:31:58.576Z,48.83
2018-12-21T08:34:26.710Z,38.73
2018-12-21T08:36:58.993Z,59.07
2018-12-21T08:39:28.264Z,50.63
2018-12-21T08:41:56.573Z,50.53
2018-12-21T08:44:25.259Z,51.27
2018-12-21T08:46:53.715Z,48.97
2018-12-21T08:49:24.308Z,49.73
2018-12-21T08:51:52.952Z,44.00
2018-12-21T08:54:21.404Z,49.03
2018-12-21T08:56:51.033Z,47.77
2018-12-21T08:59:19.364Z,42.50
2018-12-21T09:01:48.432Z,47.80
2018-12-21T09:04:16.652Z,51.63
2018-12-21T09:06:44.926Z,43.67
2018-12-21T09:09:13.132Z,50.60
2018-12-21T09:11:44.213Z,52.70
2018-12-21T09:14:12.422Z,50.70
2018-12-21T09:16:40.686Z,50.67
2018-12-21T09:19:09.104Z,55.50
2018-12-21T09:21:37.917Z,51.97
2018-12-21T09:24:09.177Z,53.00
2018-12-21T09:26:37.278Z,49.53
2018-12-21T09:29:07.651Z,54.20
2018-12-21T09:31:37.647Z,45.03
2018-12-21T09:34:06.626Z,66.95
2018-12-21T09:36:35.077Z,56.07
2018-12-21T09:39:04.791Z,50.03
2018-12-21T09:41:34.557Z,55.37
2018-12-21T09:44:03.066Z,49.30
2018-12-21T09:46:36.055Z,51.83
2018-12-21T09:49:08.773Z,53.27
2018-12-21T09:51:39.682Z,54.93
2018-12-21T09:54:10.110Z,56.57
2018-12-21T09:56:38.080Z,57.40
2018-12-21T09:59:08.045Z,64.07
2018-12-21T10:01:36.313Z,54.77
2018-12-21T10:04:07.876Z,52.47
2018-12-21T10:06:36.123Z,53.63
2018-12-21T10:09:06.469Z,50.30
2018-12-21T10:11:34.745Z,56.97
2018-12-21T10:14:03.859Z,57.77
2018-12-21T10:16:32.506Z,58.20
2018-12-21T10:19:00.637Z,60.17
2018-12-21T10:21:31.536Z,56.57
2018-12-21T10:24:00.393Z,52.57
2018-12-21T10:26:30.003Z,55.43
2018-12-21T10:28:58.378Z,54.13
2018-12-21T10:31:27.071Z,57.53
2018-12-21T10:33:55.659Z,51.17
2018-12-21T10:36:24.229Z,56.23
2018-12-21T10:38:53.025Z,50.03
2018-12-21T10:41:21.449Z,58.27
2018-12-21T10:43:49.873Z,57.43
2018-12-21T10:46:18.286Z,56.47
2018-12-21T10:48:46.558Z,51.57
2018-12-21T10:51:14.707Z,51.57
2018-12-21T10:53:46.576Z,55.97
2018-12-21T10:56:13.318Z,54.97
2018-12-21T10:58:41.526Z,56.23
2018-12-21T11:01:09.727Z,60.40
2018-12-21T11:03:37.906Z,53.50
2018-12-21T11:06:06.036Z,57.47
2018-12-21T11:08:34.392Z,55.10
2018-12-21T11:11:02.552Z,55.37
2018-12-21T11:13:30.739Z,49.37
2018-12-21T11:15:58.917Z,56.53
2018-12-21T11:18:27.120Z,54.47
2018-12-21T11:20:55.589Z,54.43
2018-12-21T11:23:23.763Z,55.27
2018-12-21T11:25:52.566Z,50.57
2018-12-21T11:28:25.362Z,53.63
2018-12-21T11:30:50.822Z,52.00
2018-12-21T11:33:18.970Z,55.13
2018-12-21T11:35:47.155Z,53.80
2018-12-21T11:38:15.394Z,54.07
2018-12-21T11:40:43.567Z,53.70
2018-12-21T11:43:11.727Z,56.67
2018-12-21T11:45:40.101Z,59.30
2018-12-21T11:48:08.211Z,60.30
2018-12-21T11:50:36.353Z,56.93
2018-12-21T11:53:04.570Z,61.10
2018-12-21T11:55:32.850Z,59.10
2018-12-21T11:58:01.029Z,59.30
2018-12-21T12:00:29.289Z,55.73
2018-12-21T12:02:57.555Z,57.07
2018-12-21T12:05:25.688Z,51.47
2018-12-21T12:07:54.082Z,58.63
2018-12-21T12:10:22.231Z,56.03
2018-12-21T12:12:50.463Z,47.53
2018-12-21T12:15:18.891Z,52.03
2018-12-21T12:17:46.994Z,61.30
2018-12-21T12:20:15.352Z,58.80
2018-12-21T12:22:43.463Z,56.50
2018-12-21T12:25:11.753Z,54.60
2018-12-21T12:27:39.875Z,47.00
2018-12-21T12:30:10.371Z,53.97
2018-12-21T12:32:38.634Z,56.37
2018-12-21T12:35:07.821Z,52.17
2018-12-21T12:37:35.937Z,54.03
2018-12-21T12:40:05.078Z,50.43
2018-12-21T12:42:33.407Z,56.27
2018-12-21T12:45:01.605Z,49.53
2018-12-21T12:47:30.974Z,57.23
2018-12-21T12:49:59.119Z,55.47
2018-12-21T12:52:28.458Z,47.50
2018-12-21T12:55:02.547Z,60.13
2018-12-21T12:57:26.802Z,61.33
2018-12-21T12:59:55.118Z,53.87
2018-12-21T13:02:23.232Z,55.93
2018-12-21T13:04:51.375Z,53.53
2018-12-21T13:07:19.853Z,57.60
2018-12-21T13:09:48.059Z,55.30
2018-12-21T13:12:16.213Z,56.33
2018-12-21T13:14:44.989Z,55.33
2018-12-21T13:17:13.692Z,47.77
2018-12-21T13:19:42.113Z,62.60
2018-12-21T13:22:10.433Z,59.37
2018-12-21T13:24:38.567Z,49.67
2018-12-21T13:27:06.655Z,58.17
2018-12-21T13:29:35.692Z,58.73
2018-12-21T13:32:03.909Z,53.77
2018-12-21T13:34:32.134Z,63.37
2018-12-21T13:37:00.423Z,61.07
2018-12-21T13:39:28.800Z,57.00
2018-12-21T13:41:58.623Z,59.17
2018-12-21T13:44:26.817Z,53.80
2018-12-21T13:46:55.098Z,51.43
2018-12-21T13:49:23.623Z,59.00
2018-12-21T13:51:51.830Z,56.70
2018-12-21T13:54:20.153Z,55.03
2018-12-21T13:56:48.333Z,58.20
2018-12-21T13:59:16.721Z,58.60
2018-12-21T14:01:45.491Z,61.60
2018-12-21T14:04:13.882Z,63.40
2018-12-21T14:06:42.265Z,61.73
2018-12-21T14:09:10.715Z,58.03
2018-12-21T14:11:39.159Z,56.83
2018-12-21T14:14:07.477Z,57.30
2018-12-21T14:16:35.924Z,51.73
2018-12-21T14:19:04.481Z,48.87
2018-12-21T14:21:32.865Z,48.90
2018-12-21T14:24:01.325Z,52.00
2018-12-21T14:26:29.490Z,50.37
2018-12-21T14:28:57.582Z,51.87
2018-12-21T14:31:25.651Z,58.70
2018-12-21T14:33:54.692Z,51.33
2018-12-21T14:36:23.707Z,44.43
2018-12-21T14:38:52.082Z,54.40
2018-12-21T14:41:21.210Z,53.80
2018-12-21T14:43:49.499Z,55.27
2018-12-21T14:46:17.667Z,57.07
2018-12-21T14:48:45.893Z,49.90
2018-12-21T14:51:14.095Z,66.90
2018-12-21T14:53:43.726Z,54.87
2018-12-21T14:56:12.533Z,53.30
2018-12-21T14:58:40.751Z,57.60
2018-12-21T15:01:09.025Z,59.73
2018-12-21T15:03:37.514Z,55.93
2018-12-21T15:06:06.183Z,49.07
2018-12-21T15:08:34.374Z,53.17
2018-12-21T15:11:02.529Z,54.17
2018-12-21T15:13:30.746Z,52.37
2018-12-21T15:15:58.937Z,55.30
2018-12-21T15:18:27.250Z,63.30
2018-12-21T15:20:55.579Z,63.33
2018-12-21T15:23:23.748Z,66.00
2018-12-21T15:25:51.954Z,64.97
2018-12-21T15:28:20.118Z,66.10
2018-12-21T15:30:48.263Z,66.83
2018-12-21T15:33:16.392Z,58.83
2018-12-21T15:35:44.676Z,58.30
2018-12-21T15:38:12.818Z,65.50
2018-12-21T15:40:41.009Z,63.00
2018-12-21T15:43:09.135Z,65.37
2018-12-21T15:45:37.332Z,70.53
2018-12-21T15:48:05.526Z,77.07
2018-12-21T15:50:33.702Z,71.57
2018-12-21T15:53:01.820Z,75.43
2018-12-21T15:55:29.962Z,71.73
2018-12-21T15:57:58.104Z,77.13
2018-12-21T16:00:29.244Z,78.40
2018-12-21T16:02:58.599Z,77.17
2018-12-21T16:05:27.459Z,80.50
2018-12-21T16:07:55.621Z,69.47
2018-12-21T16:10:23.760Z,72.10
2018-12-21T16:12:52.058Z,76.87
2018-12-21T16:15:20.359Z,78.87
2018-12-21T16:17:48.609Z,85.90
2018-12-21T16:20:16.946Z,96.93
2018-12-21T16:22:46.848Z,88.53
2018-12-21T16:25:16.050Z,95.93
2018-12-21T16:27:44.970Z,82.07
2018-12-21T16:30:14.155Z,90.80
2018-12-21T16:32:42.253Z,90.83
2018-12-21T16:35:10.425Z,87.97
2018-12-21T16:37:38.578Z,92.23
2018-12-21T16:40:09.381Z,83.63
2018-12-21T16:42:37.763Z,77.97
2018-12-21T16:45:08.945Z,74.73
2018-12-21T16:47:37.285Z,79.83
2018-12-21T16:50:10.075Z,87.23
2018-12-21T16:52:39.249Z,84.20
2018-12-21T16:55:08.802Z,86.77
2018-12-21T16:57:36.992Z,88.70
2018-12-21T17:00:08.971Z,74.83
2018-12-21T17:02:37.261Z,90.93
2018-12-21T17:05:05.671Z,91.53
2018-12-21T17:07:34.066Z,87.00
2018-12-21T17:10:02.361Z,91.97
2018-12-21T17:12:30.552Z,92.10
2018-12-21T17:14:58.881Z,91.93
2018-12-21T17:17:28.189Z,96.67
2018-12-21T17:19:56.497Z,100.30
2018-12-21T17:22:25.250Z,98.63
2018-12-21T17:24:53.508Z,95.10
2018-12-21T17:27:21.787Z,101.90
2018-12-21T17:29:49.999Z,102.97
2018-12-21T17:32:18.672Z,112.47
2018-12-21T17:34:47.172Z,100.27
2018-12-21T17:37:15.444Z,95.90
2018-12-21T17:39:43.690Z,97.47
2018-12-21T17:42:13.758Z,99.80
2018-12-21T17:44:42.563Z,95.37
2018-12-21T17:47:10.798Z,88.43
2018-12-21T17:49:40.254Z,90.20
2018-12-21T17:52:08.462Z,85.40
2018-12-21T17:54:37.796Z,83.23
2018-12-21T17:57:06.647Z,101.80
2018-12-21T17:59:35.814Z,98.43
2018-12-21T18:02:05.377Z,80.17
2018-12-21T18:04:33.696Z,71.37
2018-12-21T18:07:01.916Z,90.23
2018-12-21T18:09:35.784Z,91.20
2018-12-21T18:12:04.312Z,93.63
2018-12-21T18:14:32.573Z,99.43
2018-12-21T18:17:01.929Z,93.70
2018-12-21T18:19:30.097Z,103.93
2018-12-21T18:22:12.672Z,110.53
2018-12-21T18:24:41.050Z,114.63
2018-12-21T18:27:09.345Z,108.57
2018-12-21T18:29:39.850Z,102.30
2018-12-21T18:32:40.944Z,103.67
2018-12-21T18:35:15.135Z,101.43
2018-12-21T18:37:56.452Z,96.47
2018-12-21T18:40:24.832Z,87.50
2018-12-21T18:42:53.240Z,89.57
2018-12-21T18:45:21.619Z,83.40
2018-12-21T18:47:49.821Z,88.93
2018-12-21T18:50:17.955Z,87.83
2018-12-21T18:52:46.148Z,82.47
2018-12-21T18:55:17.662Z,79.50
2018-12-21T18:57:46.050Z,87.30
2018-12-21T19:00:16.671Z,99.00
2018-12-21T19:02:45.309Z,78.73
2018-12-21T19:05:13.585Z,90.30
2018-12-21T19:07:42.169Z,83.37
2018-12-21T19:10:12.785Z,85.30
2018-12-21T19:12:42.994Z,74.53
2018-12-21T19:15:14.642Z,78.63
2018-12-21T19:17:45.279Z,92.40
2018-12-21T19:20:15.291Z,73.83
2018-12-21T19:22:43.552Z,90.27
2018-12-21T19:25:15.033Z,88.63
2018-12-21T19:27:43.439Z,86.47
2018-12-21T19:30:12.020Z,88.23
2018-12-21T19:32:41.680Z,95.27
2018-12-21T19:35:11.612Z,98.53
2018-12-21T19:37:39.812Z,87.77
2018-12-21T19:40:09.658Z,82.60
2018-12-21T19:42:39.640Z,86.73
2018-12-21T19:45:11.659Z,85.20
2018-12-21T19:47:41.292Z,85.10
2018-12-21T19:50:11.768Z,78.13
2018-12-21T19:52:42.733Z,89.07
2018-12-21T19:55:21.086Z,86.17
2018-12-21T19:57:49.979Z,92.40
2018-12-21T20:00:18.599Z,96.03
2018-12-21T20:02:48.289Z,90.17
2018-12-21T20:05:19.184Z,82.73
2018-12-21T20:07:47.814Z,75.33
2018-12-21T20:10:16.149Z,67.80
2018-12-21T20:12:45.196Z,64.37
2018-12-21T20:15:13.340Z,68.63
2018-12-21T20:17:43.258Z,85.97
2018-12-21T20:20:12.630Z,74.83
2018-12-21T20:22:41.645Z,76.30
2018-12-21T20:25:11.395Z,85.67
2018-12-21T20:27:42.198Z,111.00
2018-12-21T20:30:14.526Z,102.03
2018-12-21T20:32:42.912Z,114.37
2018-12-21T20:35:11.777Z,106.87
2018-12-21T20:37:41.846Z,102.13
2018-12-21T20:40:12.519Z,119.20
2018-12-21T20:42:41.307Z,113.60
2018-12-21T20:45:10.592Z,113.13
2018-12-21T20:47:39.069Z,120.03
2018-12-21T20:50:12.434Z,119.13
2018-12-21T20:52:41.414Z,88.57
2018-12-21T20:55:10.020Z,127.33
2018-12-21T20:57:39.973Z,93.57
2018-12-21T21:00:12.632Z,110.50
2018-12-21T21:02:41.204Z,124.63
2018-12-21T21:05:15.842Z,113.37
2018-12-21T21:07:44.008Z,119.97
2018-12-21T21:10:13.290Z,126.73
2018-12-21T21:12:42.471Z,127.83
2018-12-21T21:15:13.414Z,136.87
2018-12-21T21:17:42.519Z,119.40
2018-12-21T21:20:14.081Z,116.73
2018-12-21T21:22:42.681Z,98.03
2018-12-21T21:25:11.534Z,103.57
2018-12-21T21:27:41.250Z,107.07
2018-12-21T21:30:12.883Z,102.50
2018-12-21T21:32:41.027Z,99.67
2018-12-21T21:35:09.979Z,93.87
2018-12-21T21:37:40.562Z,99.17
2018-12-21T21:40:16.507Z,94.20
2018-12-21T21:42:45.593Z,94.03
2018-12-21T21:45:15.147Z,80.70
2018-12-21T21:47:43.562Z,104.00
2018-12-21T21:50:12.948Z,95.97
2018-12-21T21:52:41.613Z,91.17
2018-12-21T21:55:09.760Z,96.60
2018-12-21T21:57:39.553Z,85.90
2018-12-21T22:00:11.618Z,79.90
2018-12-21T22:02:39.925Z,88.73
2018-12-21T22:05:08.131Z,89.90
2018-12-21T22:07:36.463Z,85.90
2018-12-21T22:10:06.619Z,88.93
2018-12-21T22:12:34.800Z,81.83
2018-12-21T22:15:03.223Z,79.80
2018-12-21T22:17:31.927Z,91.30
2018-12-21T22:20:00.103Z,81.43
2018-12-21T22:22:28.467Z,88.77
2018-12-21T22:24:56.620Z,94.10
2018-12-21T22:27:24.858Z,93.17
2018-12-21T22:29:53.725Z,78.90
2018-12-21T22:32:22.161Z,86.53
2018-12-21T22:34:50.300Z,89.23
2018-12-21T22:37:18.951Z,88.27
2018-12-21T22:39:49.909Z,88.20
2018-12-21T22:42:18.514Z,72.40
2018-12-21T22:44:47.819Z,82.37
2018-12-21T22:47:17.432Z,91.43
2018-12-21T22:49:47.506Z,85.50
2018-12-21T22:52:16.059Z,123.35
2018-12-21T22:54:44.237Z,102.97
2018-12-21T22:57:12.334Z,102.57
2018-12-21T22:59:40.487Z,92.60
2018-12-21T23:02:08.708Z,99.57
2018-12-21T23:04:36.909Z,108.40
2018-12-21T23:07:05.090Z,103.17
2018-12-21T23:09:33.334Z,94.07
2018-12-21T23:12:01.571Z,83.40
2018-12-21T23:14:29.735Z,95.07
2018-12-21T23:16:57.921Z,96.53
2018-12-21T23:19:26.136Z,94.50
2018-12-21T23:21:54.276Z,81.77
2018-12-21T23:24:22.470Z,80.47
2018-12-21T23:26:50.736Z,82.57
2018-12-21T23:29:18.902Z,88.97
2018-12-21T23:31:47.041Z,88.80
2018-12-21T23:34:15.164Z,84.20
2018-12-21T23:36:43.296Z,82.17
2018-12-21T23:39:11.387Z,77.37
2018-12-21T23:41:39.652Z,76.57
2018-12-21T23:44:07.752Z,84.77
2018-12-21T23:46:35.932Z,95.20
2018-12-21T23:49:04.145Z,72.97
2018-12-21T23:51:32.384Z,86.40
2018-12-21T23:54:00.623Z,76.37
2018-12-21T23:56:28.764Z,89.17
2018-12-21T23:58:56.923Z,88.27
